Time;durP1;ratioP1;P1;durP2;ratioP2;P2;SDS_P1;SDS_P2;PMS_P1;PMS_P2;Temp;Humidity;BMP_temperature;BMP_pressure;BME280_temperature;BME280_humidity;BME280_pressure;Samples;Min_cycle;Max_cycle;Signal;HPM_P1;HPM_P2
2021/12/10 00:00:05;;;;;;;;;;;;;;;28.79;21.01;96108.75;171320;28;861;-50
2021/12/10 00:00:13;;;;;;;;;;;;;;;28.74;21.13;96101.28;171115;28;1089;-49
2021/12/10 00:00:18;;;;;;;;;;;;;;;28.73;20.84;96102.31;171331;28;853;-49
2021/12/10 00:00:35;;;;;;;;;;;;;;;28.73;21.02;96104.13;171237;28;1237;-49
2021/12/10 00:00:45;;;;;;;;;;;;;;;28.68;21.15;96102.03;170671;29;877;-49
2021/12/10 00:00:52;;;;;;;;;;;;;;;28.66;21.15;96093.41;170731;28;1720;-49
2021/12/10 00:01:11;;;;;;;;;;;;;;;28.69;20.92;96105.50;171005;28;1143;-49
2021/12/10 00:01:17;;;;;;;;;;;;;;;28.69;21.25;96100.19;170543;28;840;-50
2021/12/10 00:01:26;;;;;;;;;;;;;;;28.67;20.88;96100.34;171207;28;1207;-48
2021/12/10 00:01:34;;;;;;;;;;;;;;;28.67;20.92;96102.19;171236;28;1162;-49
2021/12/10 00:01:42;;;;;;;;;;;;;;;28.68;21.08;96094.06;171413;28;854;-48
2021/12/10 00:01:49;;;;;;;;;;;;;;;28.70;21.08;96093.88;171324;28;1347;-50
2021/12/10 00:02:21;;;;;;;;;;;;;;;28.74;21.00;96092.50;171196;28;1094;-49
2021/12/10 00:02:33;;;;;;;;;;;;;;;28.78;21.10;96099.13;169660;29;4280;-49
2021/12/10 00:02:45;;;;;;;;;;;;;;;28.77;20.73;96100.97;171822;28;1061;-49
2021/12/10 00:02:50;;;;;;;;;;;;;;;28.78;21.10;96096.47;171168;28;875;-49
2021/12/10 00:02:56;;;;;;;;;;;;;;;28.80;20.76;96094.47;171552;28;1217;-49
2021/12/10 00:03:02;;;;;;;;;;;;;;;28.81;21.09;96093.47;171731;28;949;-48
2021/12/10 00:03:10;;;;;;;;;;;;;;;28.77;21.01;96094.84;171681;28;1175;-50
2021/12/10 00:03:17;;;;;;;;;;;;;;;28.77;21.00;96094.84;171722;28;838;-49
2021/12/10 00:03:25;;;;;;;;;;;;;;;28.75;21.10;96095.00;171914;28;1166;-49
2021/12/10 00:03:43;;;;;;;;;;;;;;;28.75;20.80;96094.16;172442;28;1525;-50
2021/12/10 00:03:50;;;;;;;;;;;;;;;28.75;20.82;96094.16;171892;28;955;-50
2021/12/10 00:03:56;;;;;;;;;;;;;;;28.70;20.85;96091.22;172302;28;1071;-49
2021/12/10 00:04:01;;;;;;;;;;;;;;;28.71;20.76;96085.75;172512;28;976;-50
2021/12/10 00:04:07;;;;;;;;;;;;;;;28.69;20.84;96087.75;172471;28;1228;-49
2021/12/10 00:04:12;;;;;;;;;;;;;;;28.67;21.16;96087.09;172479;28;877;-50
2021/12/10 00:04:18;;;;;;;;;;;;;;;28.62;21.14;96082.31;172188;28;1224;-50
2021/12/10 00:04:29;;;;;;;;;;;;;;;28.65;21.10;96086.44;171930;28;727;-48
2021/12/10 00:04:35;;;;;;;;;;;;;;;28.73;20.85;96090.88;170619;28;1548;-48
2021/12/10 00:04:41;;;;;;;;;;;;;;;28.73;20.83;96094.34;171917;28;928;-48
2021/12/10 00:04:46;;;;;;;;;;;;;;;28.73;21.03;96090.88;172007;28;750;-49
2021/12/10 00:04:51;;;;;;;;;;;;;;;28.70;20.91;96088.59;171936;28;1111;-48
2021/12/10 00:04:57;;;;;;;;;;;;;;;28.68;21.23;96093.25;171143;28;1639;-49
2021/12/10 00:05:03;;;;;;;;;;;;;;;28.70;20.91;96093.88;171485;28;1912;-49
2021/12/10 00:05:08;;;;;;;;;;;;;;;28.67;21.18;96089.75;171758;28;983;-49
2021/12/10 00:05:14;;;;;;;;;;;;;;;28.68;21.16;96090.59;171851;28;872;-49
2021/12/10 00:05:22;;;;;;;;;;;;;;;28.69;20.89;96089.59;171250;28;786;-49
2021/12/10 00:05:28;;;;;;;;;;;;;;;28.67;21.05;96089.75;171441;28;1139;-48
2021/12/10 00:05:35;;;;;;;;;;;;;;;28.70;21.18;96088.59;171939;28;963;-49
2021/12/10 00:05:42;;;;;;;;;;;;;;;28.68;20.87;96091.41;171510;28;1103;-49
2021/12/10 00:05:51;;;;;;;;;;;;;;;28.72;21.16;96091.88;171257;28;996;-49
2021/12/10 00:05:58;;;;;;;;;;;;;;;28.77;21.09;96089.53;171983;28;790;-49
2021/12/10 00:06:05;;;;;;;;;;;;;;;28.76;21.06;96088.72;171616;28;1162;-48
2021/12/10 00:06:17;;;;;;;;;;;;;;;28.78;21.15;96091.19;170689;28;4236;-49
2021/12/10 00:06:25;;;;;;;;;;;;;;;28.79;20.99;96088.34;170708;28;1068;-49
2021/12/10 00:06:41;;;;;;;;;;;;;;;28.80;20.97;96089.16;170700;29;1066;-49
2021/12/10 00:06:51;;;;;;;;;;;;;;;28.76;20.82;96088.72;171344;28;786;-49
2021/12/10 00:06:57;;;;;;;;;;;;;;;28.75;21.12;96087.03;170736;28;1086;-48
2021/12/10 00:07:05;;;;;;;;;;;;;;;28.74;21.07;96085.38;171001;28;1178;-49
2021/12/10 00:07:17;;;;;;;;;;;;;;;28.74;20.82;96081.91;170460;28;1629;-49
2021/12/10 00:07:23;;;;;;;;;;;;;;;28.69;21.03;96084.28;170619;29;1448;-49
2021/12/10 00:07:28;;;;;;;;;;;;;;;28.66;20.85;96090.75;171183;28;1143;-49
2021/12/10 00:07:33;;;;;;;;;;;;;;;28.65;21.23;96087.28;171327;28;904;-49
2021/12/10 00:07:38;;;;;;;;;;;;;;;28.67;21.16;96086.25;171212;28;1299;-49
2021/12/10 00:07:44;;;;;;;;;;;;;;;28.65;21.25;96086.44;171182;28;1524;-50
2021/12/10 00:07:49;;;;;;;;;;;;;;;28.68;20.97;96086.09;171556;28;1031;-48
2021/12/10 00:07:55;;;;;;;;;;;;;;;28.70;20.96;96089.41;171981;28;1082;-48
2021/12/10 00:08:00;;;;;;;;;;;;;;;28.65;21.12;96087.28;172517;28;1150;-49
2021/12/10 00:08:05;;;;;;;;;;;;;;;28.62;21.35;96079.66;172655;28;809;-48
2021/12/10 00:08:12;;;;;;;;;;;;;;;28.64;21.04;96095.41;172420;28;1262;-50
2021/12/10 00:08:17;;;;;;;;;;;;;;;28.66;21.16;96088.09;172549;28;793;-49
2021/12/10 00:08:23;;;;;;;;;;;;;;;28.64;21.22;96085.63;172571;28;880;-48
2021/12/10 00:08:28;;;;;;;;;;;;;;;28.62;20.99;96082.31;171905;28;794;-49
2021/12/10 00:08:34;;;;;;;;;;;;;;;28.62;21.20;96082.31;171926;28;991;-48
2021/12/10 00:08:40;;;;;;;;;;;;;;;28.64;21.22;96082.16;172542;28;1273;-48
2021/12/10 00:08:47;;;;;;;;;;;;;;;28.68;21.10;96082.63;172584;28;1011;-49
2021/12/10 00:08:56;;;;;;;;;;;;;;;28.72;20.90;96082.09;171846;28;801;-49
2021/12/10 00:09:09;;;;;;;;;;;;;;;28.73;20.88;96088.22;172361;28;1170;-49
2021/12/10 00:09:17;;;;;;;;;;;;;;;28.66;20.82;96082.78;172365;28;1264;-49
2021/12/10 00:09:34;;;;;;;;;;;;;;;28.67;21.25;96079.13;172417;28;1314;-48
2021/12/10 00:09:41;;;;;;;;;;;;;;;28.65;21.29;96081.97;171851;28;1011;-49
2021/12/10 00:09:47;;;;;;;;;;;;;;;28.64;21.11;96080.31;171976;28;1119;-49
2021/12/10 00:09:58;;;;;;;;;;;;;;;28.66;21.06;96082.78;172576;28;802;-49
2021/12/10 00:10:05;;;;;;;;;;;;;;;28.74;20.90;96085.38;171261;28;881;-49
2021/12/10 00:10:11;;;;;;;;;;;;;;;28.72;21.17;96082.09;170868;28;4472;-49
2021/12/10 00:10:18;;;;;;;;;;;;;;;28.69;21.08;96086.94;171756;28;834;-50
2021/12/10 00:10:25;;;;;;;;;;;;;;;28.69;20.90;96081.63;171838;28;1226;-50
2021/12/10 00:10:32;;;;;;;;;;;;;;;28.69;20.99;96086.94;171867;28;1000;-48
2021/12/10 00:10:38;;;;;;;;;;;;;;;28.66;21.19;96082.78;171865;28;1268;-48
2021/12/10 00:10:51;;;;;;;;;;;;;;;28.66;21.11;96082.78;171936;28;927;-49
2021/12/10 00:10:57;;;;;;;;;;;;;;;28.68;20.96;96080.81;171810;28;1086;-48
2021/12/10 00:11:06;;;;;;;;;;;;;;;28.72;21.20;96082.09;171878;28;806;-50
2021/12/10 00:11:13;;;;;;;;;;;;;;;28.71;21.10;96082.28;171781;28;1229;-49
2021/12/10 00:11:23;;;;;;;;;;;;;;;28.73;21.02;96081.09;171711;28;1051;-50
2021/12/10 00:11:30;;;;;;;;;;;;;;;28.75;21.00;96088.84;171851;28;996;-49
2021/12/10 00:11:41;;;;;;;;;;;;;;;28.68;21.12;96082.63;171884;28;1166;-49
2021/12/10 00:11:56;;;;;;;;;;;;;;;28.72;21.16;96075.97;171842;28;1151;-49
2021/12/10 00:12:06;;;;;;;;;;;;;;;28.73;21.04;96080.25;171514;28;914;-49
2021/12/10 00:12:11;;;;;;;;;;;;;;;28.71;20.97;96079.63;171211;28;1095;-49
2021/12/10 00:12:21;;;;;;;;;;;;;;;28.68;20.93;96080.81;171160;28;813;-49
2021/12/10 00:12:28;;;;;;;;;;;;;;;28.70;20.96;96080.63;171863;28;841;-50
2021/12/10 00:12:36;;;;;;;;;;;;;;;28.67;21.11;96080.94;172533;28;1359;-49
2021/12/10 00:12:45;;;;;;;;;;;;;;;28.64;20.90;96079.50;172618;28;947;-49
2021/12/10 00:12:51;;;;;;;;;;;;;;;28.62;21.25;96078.84;171844;28;825;-49
2021/12/10 00:12:56;;;;;;;;;;;;;;;28.61;21.11;96078.03;172202;28;1222;-49
2021/12/10 00:13:02;;;;;;;;;;;;;;;28.64;20.92;96076.84;172535;28;825;-50
2021/12/10 00:13:07;;;;;;;;;;;;;;;28.64;21.22;96079.50;172568;28;1221;-50
2021/12/10 00:13:12;;;;;;;;;;;;;;;28.68;21.03;96074.69;172487;28;790;-48
2021/12/10 00:13:18;;;;;;;;;;;;;;;28.66;20.97;96085.44;172366;28;1170;-50
2021/12/10 00:13:23;;;;;;;;;;;;;;;28.70;21.15;96081.44;172497;28;1209;-47
2021/12/10 00:13:28;;;;;;;;;;;;;;;28.69;21.11;96079.81;172507;28;794;-48
2021/12/10 00:13:34;;;;;;;;;;;;;;;28.70;21.17;96078.78;172448;28;1126;-49
2021/12/10 00:13:44;;;;;;;;;;;;;;;28.70;21.17;96080.63;172471;28;911;-49
2021/12/10 00:13:49;;;;;;;;;;;;;;;28.71;21.24;96071.66;171872;28;857;-49
2021/12/10 00:13:54;;;;;;;;;;;;;;;28.73;20.80;96077.59;172124;28;1159;-49
2021/12/10 00:13:59;;;;;;;;;;;;;;;28.72;21.17;96089.22;172578;28;833;-49
2021/12/10 00:14:05;;;;;;;;;;;;;;;28.73;20.92;96077.59;172389;28;1067;-50
2021/12/10 00:14:10;;;;;;;;;;;;;;;28.70;21.15;96084.09;172005;28;4395;-49
2021/12/10 00:14:16;;;;;;;;;;;;;;;28.69;21.16;96077.16;172474;28;1004;-49
2021/12/10 00:14:25;;;;;;;;;;;;;;;28.65;20.94;96079.31;171793;28;975;-49
2021/12/10 00:14:31;;;;;;;;;;;;;;;28.67;21.16;96080.94;171220;28;1150;-50
2021/12/10 00:14:36;;;;;;;;;;;;;;;28.70;20.87;96073.50;170667;28;1605;-48
2021/12/10 00:14:42;;;;;;;;;;;;;;;28.70;21.06;96075.31;170599;28;1847;-49
2021/12/10 00:14:47;;;;;;;;;;;;;;;28.70;20.83;96078.78;171207;28;798;-50
2021/12/10 00:14:52;;;;;;;;;;;;;;;28.66;21.19;96066.88;170638;28;1136;-49
2021/12/10 00:14:57;;;;;;;;;;;;;;;28.74;20.86;96079.25;171117;28;1541;-49
2021/12/10 00:15:03;;;;;;;;;;;;;;;28.71;21.11;96076.97;170588;28;1410;-49
2021/12/10 00:15:09;;;;;;;;;;;;;;;28.73;20.98;96086.38;170913;28;745;-49
2021/12/10 00:15:14;;;;;;;;;;;;;;;28.76;20.83;96082.56;170951;28;1911;-50
2021/12/10 00:15:21;;;;;;;;;;;;;;;28.72;20.99;96079.44;171076;28;1143;-48
2021/12/10 00:15:26;;;;;;;;;;;;;;;28.75;21.21;96075.59;171193;28;888;-48
2021/12/10 00:15:32;;;;;;;;;;;;;;;28.77;20.77;96079.75;171197;28;1056;-48
2021/12/10 00:15:39;;;;;;;;;;;;;;;28.73;20.96;96075.78;171244;28;920;-49
2021/12/10 00:15:45;;;;;;;;;;;;;;;28.73;20.82;96077.59;171142;28;865;-50
2021/12/10 00:15:54;;;;;;;;;;;;;;;28.69;21.15;96079.81;171565;28;1539;-50
2021/12/10 00:15:59;;;;;;;;;;;;;;;28.71;21.04;96074.31;171201;28;912;-49
2021/12/10 00:16:04;;;;;;;;;;;;;;;28.71;21.11;96083.09;171155;28;1593;-49
2021/12/10 00:16:10;;;;;;;;;;;;;;;28.73;20.98;96083.72;171342;28;858;-48
2021/12/10 00:16:15;;;;;;;;;;;;;;;28.72;20.84;96071.47;171667;28;1374;-49
2021/12/10 00:16:21;;;;;;;;;;;;;;;28.73;21.09;96075.78;171932;28;822;-49
2021/12/10 00:16:26;;;;;;;;;;;;;;;28.74;20.88;96077.41;171844;28;1201;-48
2021/12/10 00:16:32;;;;;;;;;;;;;;;28.73;21.04;96078.44;171847;28;908;-49
2021/12/10 00:16:38;;;;;;;;;;;;;;;28.71;21.04;96084.91;171797;28;1147;-48
2021/12/10 00:16:43;;;;;;;;;;;;;;;28.74;21.10;96084.56;171934;28;987;-49
2021/12/10 00:16:48;;;;;;;;;;;;;;;28.77;20.84;96076.25;171836;28;854;-50
2021/12/10 00:16:54;;;;;;;;;;;;;;;28.77;20.82;96078.91;171902;28;1111;-49
2021/12/10 00:16:59;;;;;;;;;;;;;;;28.78;20.97;96072.59;171876;28;1040;-50
2021/12/10 00:17:06;;;;;;;;;;;;;;;28.78;21.07;96084.03;172409;28;1166;-48
2021/12/10 00:17:11;;;;;;;;;;;;;;;28.79;20.74;96083.03;172470;28;850;-49
2021/12/10 00:17:17;;;;;;;;;;;;;;;28.79;20.84;96079.56;172470;28;1137;-49
2021/12/10 00:17:23;;;;;;;;;;;;;;;28.79;20.93;96074.25;172574;28;861;-50
2021/12/10 00:17:28;;;;;;;;;;;;;;;28.82;20.74;96081.84;172566;28;1217;-50
2021/12/10 00:17:33;;;;;;;;;;;;;;;28.83;21.05;96086.16;172558;28;824;-49
2021/12/10 00:17:38;;;;;;;;;;;;;;;28.81;20.94;96077.53;172475;28;1217;-50
2021/12/10 00:17:44;;;;;;;;;;;;;;;28.84;20.99;96079.88;172570;28;892;-49
2021/12/10 00:17:49;;;;;;;;;;;;;;;28.82;20.88;96077.38;171644;28;1146;-49
2021/12/10 00:17:55;;;;;;;;;;;;;;;28.82;21.18;96077.38;171326;28;813;-50
2021/12/10 00:18:01;;;;;;;;;;;;;;;28.83;20.90;96079.00;171212;28;1233;-50
2021/12/10 00:18:07;;;;;;;;;;;;;;;28.84;20.61;96074.56;171184;28;962;-48
2021/12/10 00:18:13;;;;;;;;;;;;;;;28.77;20.76;96074.44;171240;28;1154;-49
2021/12/10 00:18:18;;;;;;;;;;;;;;;28.81;20.69;96078.38;170928;28;4343;-50
2021/12/10 00:18:30;;;;;;;;;;;;;;;28.80;20.94;96081.19;171235;28;1217;-50
2021/12/10 00:18:37;;;;;;;;;;;;;;;28.76;20.77;96082.56;171208;28;1125;-48
2021/12/10 00:18:49;;;;;;;;;;;;;;;28.78;20.87;96081.38;171242;28;850;-49
2021/12/10 00:19:07;;;;;;;;;;;;;;;28.77;21.09;96079.75;171352;28;936;-49
2021/12/10 00:19:32;;;;;;;;;;;;;;;28.81;20.88;96077.53;171323;28;1171;-48
2021/12/10 00:19:43;;;;;;;;;;;;;;;28.82;20.76;96080.00;171268;28;1157;-49
2021/12/10 00:19:50;;;;;;;;;;;;;;;28.87;20.87;96080.31;171777;28;1200;-49
2021/12/10 00:19:57;;;;;;;;;;;;;;;28.85;20.85;96076.22;171961;28;745;-48
2021/12/10 00:20:03;;;;;;;;;;;;;;;28.84;20.99;96080.69;171899;28;984;-49
2021/12/10 00:20:09;;;;;;;;;;;;;;;28.82;20.75;96072.06;171059;28;842;-49
2021/12/10 00:20:15;;;;;;;;;;;;;;;28.82;20.77;96072.06;171133;28;889;-49
2021/12/10 00:20:20;;;;;;;;;;;;;;;28.83;21.07;96078.19;171215;28;892;-49
2021/12/10 00:20:26;;;;;;;;;;;;;;;28.83;20.93;96080.84;171195;28;1115;-48
2021/12/10 00:20:32;;;;;;;;;;;;;;;28.82;20.96;96068.59;171243;28;782;-49
2021/12/10 00:20:38;;;;;;;;;;;;;;;28.83;20.76;96070.22;171251;28;869;-49
2021/12/10 00:20:43;;;;;;;;;;;;;;;28.86;20.94;96076.03;171212;28;861;-49
2021/12/10 00:20:50;;;;;;;;;;;;;;;28.80;20.93;96070.59;171136;28;1178;-50
2021/12/10 00:20:58;;;;;;;;;;;;;;;28.81;20.97;96074.91;171214;28;825;-49
2021/12/10 00:21:03;;;;;;;;;;;;;;;28.75;20.98;96076.41;171176;28;869;-48
2021/12/10 00:21:09;;;;;;;;;;;;;;;28.77;20.89;96074.44;170963;28;1201;-49
2021/12/10 00:21:14;;;;;;;;;;;;;;;28.79;20.90;96077.72;171134;28;814;-50
2021/12/10 00:21:20;;;;;;;;;;;;;;;28.77;21.08;96079.75;171190;28;873;-50
2021/12/10 00:21:26;;;;;;;;;;;;;;;28.80;20.64;96067.94;170627;29;818;-49
2021/12/10 00:21:31;;;;;;;;;;;;;;;28.81;20.74;96073.06;171153;28;816;-50
2021/12/10 00:21:36;;;;;;;;;;;;;;;28.79;20.81;96076.91;171584;28;1412;-48
2021/12/10 00:21:41;;;;;;;;;;;;;;;28.82;20.90;96076.53;171699;28;866;-49
2021/12/10 00:21:47;;;;;;;;;;;;;;;28.80;21.02;96075.91;171825;28;956;-48
2021/12/10 00:21:52;;;;;;;;;;;;;;;28.83;21.09;96076.34;171898;28;825;-50
2021/12/10 00:21:58;;;;;;;;;;;;;;;28.88;20.66;96081.16;171838;28;1167;-49
2021/12/10 00:22:06;;;;;;;;;;;;;;;28.89;20.98;96075.66;171773;28;805;-48
2021/12/10 00:22:12;;;;;;;;;;;;;;;28.84;20.77;96075.38;171967;28;4388;-49
2021/12/10 00:22:19;;;;;;;;;;;;;;;28.82;20.77;96072.06;172559;28;1027;-50
2021/12/10 00:22:34;;;;;;;;;;;;;;;28.84;20.65;96072.72;172566;28;825;-49
2021/12/10 00:22:45;;;;;;;;;;;;;;;28.82;20.90;96077.38;172567;28;924;-50
2021/12/10 00:22:55;;;;;;;;;;;;;;;28.81;20.92;96072.25;172510;28;881;-49
2021/12/10 00:23:02;;;;;;;;;;;;;;;28.79;20.95;96076.91;171864;28;941;-48
2021/12/10 00:23:12;;;;;;;;;;;;;;;28.77;20.85;96074.44;171906;28;1044;-49
2021/12/10 00:23:18;;;;;;;;;;;;;;;28.69;20.98;96066.53;172569;28;813;-49
2021/12/10 00:23:23;;;;;;;;;;;;;;;28.70;20.85;96075.31;171792;28;976;-49
2021/12/10 00:23:30;;;;;;;;;;;;;;;28.73;21.09;96075.78;171767;28;945;-50
2021/12/10 00:23:36;;;;;;;;;;;;;;;28.79;21.00;96071.59;171269;28;773;-49
2021/12/10 00:23:45;;;;;;;;;;;;;;;28.77;21.04;96076.25;171139;28;1159;-48
2021/12/10 00:23:51;;;;;;;;;;;;;;;28.76;21.01;96077.28;171303;28;962;-49
2021/12/10 00:23:57;;;;;;;;;;;;;;;28.73;21.02;96072.28;171209;28;1167;-48
2021/12/10 00:24:03;;;;;;;;;;;;;;;28.73;20.82;96067.00;171121;28;830;-49
2021/12/10 00:24:09;;;;;;;;;;;;;;;28.72;21.11;96076.78;170583;28;1903;-50
2021/12/10 00:24:16;;;;;;;;;;;;;;;28.74;21.01;96077.41;171160;28;865;-50
2021/12/10 00:24:25;;;;;;;;;;;;;;;28.73;20.80;96072.28;171256;28;1242;-49
2021/12/10 00:24:31;;;;;;;;;;;;;;;28.69;20.77;96071.00;170927;28;1471;-49
2021/12/10 00:24:36;;;;;;;;;;;;;;;28.69;20.83;96071.00;170299;28;1570;-49
2021/12/10 00:24:42;;;;;;;;;;;;;;;28.65;20.86;96076.66;170539;28;1867;-49
2021/12/10 00:24:49;;;;;;;;;;;;;;;28.67;20.90;96073.00;170976;28;1017;-48
2021/12/10 00:24:54;;;;;;;;;;;;;;;28.69;20.84;96068.38;171531;28;1306;-48
2021/12/10 00:24:59;;;;;;;;;;;;;;;28.72;20.78;96074.13;171093;28;1639;-48
2021/12/10 00:25:09;;;;;;;;;;;;;;;28.74;21.07;96071.28;171595;28;925;-49
2021/12/10 00:25:17;;;;;;;;;;;;;;;28.75;21.07;96067.63;171844;28;952;-50
2021/12/10 00:25:24;;;;;;;;;;;;;;;28.77;20.77;96078.91;172336;28;977;-49
2021/12/10 00:25:35;;;;;;;;;;;;;;;28.79;20.77;96071.59;172500;28;1224;-49
2021/12/10 00:25:44;;;;;;;;;;;;;;;28.79;20.76;96071.59;172574;28;1166;-49
2021/12/10 00:25:50;;;;;;;;;;;;;;;28.80;20.81;96073.25;172576;28;821;-50
2021/12/10 00:25:55;;;;;;;;;;;;;;;28.81;20.77;96072.25;172577;28;1161;-50
2021/12/10 00:26:01;;;;;;;;;;;;;;;28.76;20.97;96070.13;172574;28;805;-49
2021/12/10 00:26:06;;;;;;;;;;;;;;;28.73;20.79;96070.47;172366;28;1188;-49
2021/12/10 00:26:11;;;;;;;;;;;;;;;28.75;20.95;96075.59;172024;28;4378;-48
2021/12/10 00:26:20;;;;;;;;;;;;;;;28.76;21.02;96071.97;172512;28;1182;-48
2021/12/10 00:26:26;;;;;;;;;;;;;;;28.77;20.76;96074.44;172520;28;1213;-49
2021/12/10 00:26:31;;;;;;;;;;;;;;;28.74;20.78;96074.78;172605;28;853;-49
2021/12/10 00:26:37;;;;;;;;;;;;;;;28.78;20.75;96072.59;172500;28;849;-49
2021/12/10 00:26:42;;;;;;;;;;;;;;;28.82;20.72;96073.88;172463;28;1095;-49
2021/12/10 00:26:48;;;;;;;;;;;;;;;28.78;21.00;96072.59;172582;28;885;-49
2021/12/10 00:26:53;;;;;;;;;;;;;;;28.79;21.08;96069.78;172174;28;1225;-49
2021/12/10 00:26:59;;;;;;;;;;;;;;;28.82;20.93;96079.19;171889;28;789;-50
2021/12/10 00:27:06;;;;;;;;;;;;;;;28.79;21.02;96066.28;171778;28;1174;-49
2021/12/10 00:27:11;;;;;;;;;;;;;;;28.87;20.78;96066.22;171808;28;852;-49
2021/12/10 00:27:26;;;;;;;;;;;;;;;28.87;20.89;96071.53;172471;28;1040;-49
2021/12/10 00:27:32;;;;;;;;;;;;;;;28.82;20.67;96068.59;171939;28;841;-51
2021/12/10 00:27:38;;;;;;;;;;;;;;;28.80;20.83;96063.47;172030;28;1226;-49
2021/12/10 00:27:43;;;;;;;;;;;;;;;28.80;20.94;96065.28;172612;28;1011;-49
2021/12/10 00:27:49;;;;;;;;;;;;;;;28.82;21.11;96065.94;172585;28;1198;-49
2021/12/10 00:27:55;;;;;;;;;;;;;;;28.78;20.76;96068.13;172631;28;881;-49
2021/12/10 00:28:01;;;;;;;;;;;;;;;28.76;20.70;96064.00;172549;28;1150;-49
2021/12/10 00:28:14;;;;;;;;;;;;;;;28.74;20.75;96066.00;172434;28;999;-49
2021/12/10 00:28:24;;;;;;;;;;;;;;;28.81;20.76;96070.41;171953;28;885;-50
2021/12/10 00:28:30;;;;;;;;;;;;;;;28.77;20.81;96068.31;171873;28;865;-49
2021/12/10 00:28:39;;;;;;;;;;;;;;;28.78;20.71;96064.66;171837;28;1146;-49
2021/12/10 00:28:44;;;;;;;;;;;;;;;28.81;21.06;96069.59;172581;28;883;-49
2021/12/10 00:28:49;;;;;;;;;;;;;;;28.81;20.86;96067.75;172582;28;1166;-48
2021/12/10 00:29:02;;;;;;;;;;;;;;;28.80;20.81;96067.94;172592;28;959;-49
2021/12/10 00:29:07;;;;;;;;;;;;;;;28.79;21.02;96066.28;172483;28;951;-48
2021/12/10 00:29:13;;;;;;;;;;;;;;;28.81;20.69;96066.94;172380;28;1185;-49
2021/12/10 00:29:19;;;;;;;;;;;;;;;28.82;20.86;96061.44;171209;28;849;-49
2021/12/10 00:29:24;;;;;;;;;;;;;;;28.86;20.83;96069.88;171198;28;1190;-49
2021/12/10 00:29:29;;;;;;;;;;;;;;;28.85;21.04;96065.59;171380;28;837;-49
2021/12/10 00:29:35;;;;;;;;;;;;;;;28.88;20.97;96065.22;171243;28;1099;-49
2021/12/10 00:29:42;;;;;;;;;;;;;;;28.89;20.78;96072.19;171327;28;810;-49
2021/12/10 00:29:50;;;;;;;;;;;;;;;28.94;20.63;96067.19;171296;28;1161;-49
2021/12/10 00:30:03;;;;;;;;;;;;;;;28.95;20.65;96068.03;171382;28;908;-49
2021/12/10 00:30:10;;;;;;;;;;;;;;;28.98;20.83;96067.66;171198;28;857;-49
2021/12/10 00:30:18;;;;;;;;;;;;;;;28.98;20.53;96065.81;170692;28;4273;-49
2021/12/10 00:30:26;;;;;;;;;;;;;;;28.90;20.61;96065.91;172067;28;1146;-49
2021/12/10 00:30:34;;;;;;;;;;;;;;;28.88;20.63;96066.03;172635;28;913;-48
2021/12/10 00:30:48;;;;;;;;;;;;;;;28.82;20.89;96066.75;171867;28;873;-48
2021/12/10 00:31:48;;;;;;;;;;;;;;;28.81;20.69;96073.06;172591;28;742;-48
2021/12/10 00:31:57;;;;;;;;;;;;;;;28.77;21.02;96069.13;171928;28;798;-48
2021/12/10 00:32:05;;;;;;;;;;;;;;;28.75;20.71;96065.81;172681;28;619;-50
2021/12/10 00:32:18;;;;;;;;;;;;;;;28.77;20.95;96063.00;172464;28;1169;-49
2021/12/10 00:32:31;;;;;;;;;;;;;;;28.78;20.81;96070.78;171126;28;1158;-48
2021/12/10 00:32:40;;;;;;;;;;;;;;;28.76;20.90;96067.47;171333;28;914;-48
2021/12/10 00:32:47;;;;;;;;;;;;;;;28.76;21.04;96067.47;171283;28;1166;-49
2021/12/10 00:32:58;;;;;;;;;;;;;;;28.76;20.81;96069.31;171265;28;988;-49
2021/12/10 00:33:11;;;;;;;;;;;;;;;28.73;20.80;96069.66;171221;28;992;-49
2021/12/10 00:33:21;;;;;;;;;;;;;;;28.74;21.01;96063.34;170568;28;894;-49
2021/12/10 00:33:27;;;;;;;;;;;;;;;28.75;20.85;96065.81;171324;28;869;-48
2021/12/10 00:33:34;;;;;;;;;;;;;;;28.76;20.75;96064.81;171213;28;1170;-49
2021/12/10 00:33:39;;;;;;;;;;;;;;;28.74;20.96;96066.00;171342;28;944;-48
2021/12/10 00:33:49;;;;;;;;;;;;;;;28.73;21.04;96065.16;171342;28;1096;-49
2021/12/10 00:33:56;;;;;;;;;;;;;;;28.71;20.91;96058.41;171206;28;1196;-48
2021/12/10 00:34:06;;;;;;;;;;;;;;;28.71;21.05;96063.69;171343;28;850;-49
2021/12/10 00:34:17;;;;;;;;;;;;;;;28.69;20.87;96058.56;170580;28;896;-49
2021/12/10 00:34:24;;;;;;;;;;;;;;;28.74;21.05;96066.00;170317;28;4469;-49
2021/12/10 00:34:31;;;;;;;;;;;;;;;28.73;20.94;96062.50;170654;28;1163;-48
2021/12/10 00:34:38;;;;;;;;;;;;;;;28.75;20.78;96062.31;171324;28;893;-49
2021/12/10 00:34:45;;;;;;;;;;;;;;;28.76;21.03;96054.22;171253;28;1127;-49
2021/12/10 00:34:51;;;;;;;;;;;;;;;28.78;20.71;96062.00;171331;28;876;-48
2021/12/10 00:34:56;;;;;;;;;;;;;;;28.80;20.89;96059.97;171264;28;1182;-49
2021/12/10 00:35:04;;;;;;;;;;;;;;;28.77;20.84;96060.34;171296;28;1055;-49
2021/12/10 00:35:20;;;;;;;;;;;;;;;28.72;21.03;96060.88;171202;28;1324;-49
2021/12/10 00:35:25;;;;;;;;;;;;;;;28.82;20.74;96055.31;170653;28;913;-48
2021/12/10 00:35:31;;;;;;;;;;;;;;;28.75;20.92;96060.50;171027;28;1163;-48
2021/12/10 00:35:36;;;;;;;;;;;;;;;28.71;21.13;96058.41;171273;28;963;-50
2021/12/10 00:35:41;;;;;;;;;;;;;;;28.70;21.11;96064.72;171257;28;1096;-49
2021/12/10 00:35:47;;;;;;;;;;;;;;;28.70;20.97;96059.41;171375;28;892;-49
2021/12/10 00:35:53;;;;;;;;;;;;;;;28.73;21.09;96056.38;171216;28;1146;-49
2021/12/10 00:35:58;;;;;;;;;;;;;;;28.70;20.83;96060.22;171318;28;833;-49
2021/12/10 00:36:03;;;;;;;;;;;;;;;28.73;20.98;96059.84;171218;28;1162;-48
2021/12/10 00:36:08;;;;;;;;;;;;;;;28.70;21.06;96051.44;171185;28;786;-50
2021/12/10 00:36:14;;;;;;;;;;;;;;;28.70;20.96;96064.72;171084;28;856;-50
2021/12/10 00:36:19;;;;;;;;;;;;;;;28.70;21.09;96054.91;171267;28;1181;-49
2021/12/10 00:36:25;;;;;;;;;;;;;;;28.70;20.83;96059.41;171258;28;1024;-50
2021/12/10 00:36:30;;;;;;;;;;;;;;;28.71;20.79;96063.69;171254;28;1154;-49
2021/12/10 00:36:36;;;;;;;;;;;;;;;28.70;20.98;96054.91;171301;28;815;-49
2021/12/10 00:36:43;;;;;;;;;;;;;;;28.74;21.02;96058.84;171180;28;1178;-49
2021/12/10 00:36:49;;;;;;;;;;;;;;;28.74;20.75;96055.38;171342;28;805;-48
2021/12/10 00:36:57;;;;;;;;;;;;;;;28.70;20.92;96052.25;171347;28;929;-49
2021/12/10 00:37:03;;;;;;;;;;;;;;;28.71;21.03;96047.78;171266;28;1107;-49
2021/12/10 00:37:09;;;;;;;;;;;;;;;28.72;20.77;96066.16;171275;28;813;-49
2021/12/10 00:37:15;;;;;;;;;;;;;;;28.74;20.75;96058.03;171152;28;1234;-48
2021/12/10 00:37:21;;;;;;;;;;;;;;;28.76;20.85;96058.69;171211;28;991;-49
2021/12/10 00:37:26;;;;;;;;;;;;;;;28.72;21.08;96055.56;171175;28;1166;-49
2021/12/10 00:37:32;;;;;;;;;;;;;;;28.72;21.05;96052.91;171351;28;809;-49
2021/12/10 00:37:37;;;;;;;;;;;;;;;28.74;20.83;96058.03;171243;28;794;-48
2021/12/10 00:37:42;;;;;;;;;;;;;;;28.71;21.04;96061.03;171224;28;1036;-49
2021/12/10 00:37:47;;;;;;;;;;;;;;;28.69;21.10;96052.44;171165;28;814;-49
2021/12/10 00:37:52;;;;;;;;;;;;;;;28.72;20.98;96055.56;171244;28;1181;-49
2021/12/10 00:37:58;;;;;;;;;;;;;;;28.69;21.12;96055.09;171258;28;885;-49
2021/12/10 00:38:03;;;;;;;;;;;;;;;28.70;20.83;96060.22;171190;28;1503;-50
2021/12/10 00:38:08;;;;;;;;;;;;;;;28.73;21.04;96056.38;171091;28;1043;-49
2021/12/10 00:38:14;;;;;;;;;;;;;;;28.76;21.01;96058.69;170637;28;4765;-49
2021/12/10 00:38:19;;;;;;;;;;;;;;;28.77;20.69;96058.53;171243;28;907;-50
2021/12/10 00:38:24;;;;;;;;;;;;;;;28.73;21.01;96054.56;171162;28;1164;-49
2021/12/10 00:38:29;;;;;;;;;;;;;;;28.69;20.77;96050.63;171233;28;873;-48
2021/12/10 00:38:35;;;;;;;;;;;;;;;28.71;20.86;96053.09;171306;28;825;-48
2021/12/10 00:38:40;;;;;;;;;;;;;;;28.72;20.71;96055.56;171166;28;1169;-48
2021/12/10 00:38:46;;;;;;;;;;;;;;;28.71;21.05;96053.91;171261;28;936;-49
2021/12/10 00:38:51;;;;;;;;;;;;;;;28.69;20.77;96058.56;170656;28;1459;-49
2021/12/10 00:38:56;;;;;;;;;;;;;;;28.65;21.09;96044.81;170699;28;818;-48
2021/12/10 00:39:03;;;;;;;;;;;;;;;28.69;20.90;96053.28;171190;28;1095;-49
2021/12/10 00:39:10;;;;;;;;;;;;;;;28.69;21.14;96058.56;171173;28;822;-50
2021/12/10 00:39:17;;;;;;;;;;;;;;;28.68;20.74;96054.28;171441;28;1075;-50
2021/12/10 00:39:27;;;;;;;;;;;;;;;28.67;20.99;96057.09;171967;28;955;-49
2021/12/10 00:39:34;;;;;;;;;;;;;;;28.69;20.81;96047.97;172579;28;1078;-49